Terminal Aerodrome Forecast
Issued by NWS

Home | Current Version | Previous Version | Text Only | Print | Product List | Glossary On
Versions: 1 2 3 4 5 6 7 8 9 10 11 12 13 14 15 16 17 18 19 20 21 22 23 24 25 26 27
931
FTUS43 KILX 221608 AAB
TAFBMI
TAF AMD
KBMI 221608Z 2216/2312 29010KT P6SM OVC015
     FM222000 32009KT P6SM BKN040
     FM230100 33005KT P6SM SKC
     FM230900 34005KT 4SM BR SKC=

USA.gov is the U.S. government's official web portal to all federal, state and local government web resources and services.